sensor_id;sensor_type;location;lat;lon;timestamp;P1;durP1;ratioP1;P2;durP2;ratioP2
60464;SDS011;46314;52.392;9.758;2023-02-18T00:02:21;5.10;;;1.55;;
60464;SDS011;46314;52.392;9.758;2023-02-18T00:04:48;8.13;;;2.25;;
60464;SDS011;46314;52.392;9.758;2023-02-18T00:07:14;8.88;;;2.22;;
60464;SDS011;46314;52.392;9.758;2023-02-18T00:09:42;6.32;;;2.05;;
60464;SDS011;46314;52.392;9.758;2023-02-18T00:12:08;7.10;;;1.63;;
60464;SDS011;46314;52.392;9.758;2023-02-18T00:14:35;7.53;;;2.05;;
60464;SDS011;46314;52.392;9.758;2023-02-18T00:17:01;5.85;;;2.53;;
60464;SDS011;46314;52.392;9.758;2023-02-18T00:19:28;10.07;;;2.22;;
60464;SDS011;46314;52.392;9.758;2023-02-18T00:21:54;5.82;;;1.85;;
60464;SDS011;46314;52.392;9.758;2023-02-18T00:24:20;9.32;;;2.45;;
60464;SDS011;46314;52.392;9.758;2023-02-18T00:26:50;7.07;;;1.85;;
60464;SDS011;46314;52.392;9.758;2023-02-18T00:29:17;11.05;;;2.50;;
60464;SDS011;46314;52.392;9.758;2023-02-18T00:31:44;6.93;;;2.70;;
60464;SDS011;46314;52.392;9.758;2023-02-18T00:34:11;6.50;;;1.50;;
60464;SDS011;46314;52.392;9.758;2023-02-18T00:36:38;6.88;;;1.95;;
60464;SDS011;46314;52.392;9.758;2023-02-18T00:39:06;17.02;;;2.03;;
60464;SDS011;46314;52.392;9.758;2023-02-18T00:41:34;7.03;;;2.35;;
60464;SDS011;46314;52.392;9.758;2023-02-18T00:44:03;7.35;;;1.88;;
60464;SDS011;46314;52.392;9.758;2023-02-18T00:46:31;6.43;;;2.08;;
60464;SDS011;46314;52.392;9.758;2023-02-18T00:48:58;6.30;;;1.75;;
60464;SDS011;46314;52.392;9.758;2023-02-18T00:51:24;7.72;;;2.38;;
60464;SDS011;46314;52.392;9.758;2023-02-18T00:53:51;7.80;;;1.95;;
60464;SDS011;46314;52.392;9.758;2023-02-18T00:56:17;10.30;;;2.22;;
60464;SDS011;46314;52.392;9.758;2023-02-18T00:58:44;7.05;;;2.20;;
60464;SDS011;46314;52.392;9.758;2023-02-18T01:01:12;7.05;;;2.25;;
60464;SDS011;46314;52.392;9.758;2023-02-18T01:03:39;9.40;;;1.83;;
60464;SDS011;46314;52.392;9.758;2023-02-18T01:06:06;9.82;;;2.05;;
60464;SDS011;46314;52.392;9.758;2023-02-18T01:08:34;11.13;;;2.13;;
60464;SDS011;46314;52.392;9.758;2023-02-18T01:11:02;4.63;;;1.67;;
60464;SDS011;46314;52.392;9.758;2023-02-18T01:13:29;6.50;;;2.40;;
60464;SDS011;46314;52.392;9.758;2023-02-18T01:15:56;13.70;;;2.88;;
60464;SDS011;46314;52.392;9.758;2023-02-18T01:18:25;6.15;;;2.05;;
60464;SDS011;46314;52.392;9.758;2023-02-18T01:20:52;12.68;;;2.50;;
60464;SDS011;46314;52.392;9.758;2023-02-18T01:23:19;8.55;;;2.15;;
60464;SDS011;46314;52.392;9.758;2023-02-18T01:25:46;10.30;;;2.47;;
60464;SDS011;46314;52.392;9.758;2023-02-18T01:28:12;10.18;;;2.13;;
60464;SDS011;46314;52.392;9.758;2023-02-18T01:30:40;7.18;;;1.98;;
60464;SDS011;46314;52.392;9.758;2023-02-18T01:33:07;5.05;;;1.90;;
60464;SDS011;46314;52.392;9.758;2023-02-18T01:35:37;9.32;;;2.13;;
60464;SDS011;46314;52.392;9.758;2023-02-18T01:38:04;7.85;;;2.17;;
60464;SDS011;46314;52.392;9.758;2023-02-18T01:40:30;7.35;;;1.88;;
60464;SDS011;46314;52.392;9.758;2023-02-18T01:42:57;8.52;;;2.15;;
60464;SDS011;46314;52.392;9.758;2023-02-18T01:45:38;8.65;;;2.47;;
60464;SDS011;46314;52.392;9.758;2023-02-18T01:48:22;7.05;;;1.90;;
60464;SDS011;46314;52.392;9.758;2023-02-18T01:50:57;8.57;;;1.90;;
60464;SDS011;46314;52.392;9.758;2023-02-18T01:53:27;8.10;;;2.72;;
60464;SDS011;46314;52.392;9.758;2023-02-18T01:55:57;5.55;;;2.45;;
60464;SDS011;46314;52.392;9.758;2023-02-18T01:58:27;8.98;;;2.33;;
60464;SDS011;46314;52.392;9.758;2023-02-18T02:00:54;13.32;;;2.55;;
60464;SDS011;46314;52.392;9.758;2023-02-18T02:03:20;9.00;;;1.42;;
60464;SDS011;46314;52.392;9.758;2023-02-18T02:05:47;7.60;;;1.88;;
60464;SDS011;46314;52.392;9.758;2023-02-18T02:08:14;7.47;;;1.67;;
60464;SDS011;46314;52.392;9.758;2023-02-18T02:10:45;6.88;;;1.70;;
60464;SDS011;46314;52.392;9.758;2023-02-18T02:13:23;12.77;;;2.60;;
60464;SDS011;46314;52.392;9.758;2023-02-18T02:16:00;10.35;;;2.03;;
60464;SDS011;46314;52.392;9.758;2023-02-18T02:18:35;7.18;;;1.60;;
60464;SDS011;46314;52.392;9.758;2023-02-18T02:21:17;7.18;;;2.05;;
60464;SDS011;46314;52.392;9.758;2023-02-18T02:24:11;7.80;;;2.20;;
60464;SDS011;46314;52.392;9.758;2023-02-18T02:27:11;7.03;;;2.17;;
60464;SDS011;46314;52.392;9.758;2023-02-18T02:35:48;5.72;;;2.25;;
60464;SDS011;46314;52.392;9.758;2023-02-18T02:38:21;13.38;;;2.58;;
60464;SDS011;46314;52.392;9.758;2023-02-18T02:40:57;12.73;;;2.30;;
60464;SDS011;46314;52.392;9.758;2023-02-18T02:43:32;8.43;;;2.67;;
60464;SDS011;46314;52.392;9.758;2023-02-18T02:46:10;6.18;;;1.90;;
60464;SDS011;46314;52.392;9.758;2023-02-18T02:48:47;12.38;;;2.40;;
60464;SDS011;46314;52.392;9.758;2023-02-18T02:51:19;9.85;;;2.38;;
60464;SDS011;46314;52.392;9.758;2023-02-18T02:53:52;9.82;;;2.35;;
60464;SDS011;46314;52.392;9.758;2023-02-18T02:56:19;13.98;;;2.55;;
60464;SDS011;46314;52.392;9.758;2023-02-18T02:58:49;8.05;;;2.28;;
60464;SDS011;46314;52.392;9.758;2023-02-18T03:01:27;9.02;;;2.20;;
60464;SDS011;46314;52.392;9.758;2023-02-18T03:04:03;13.98;;;2.47;;
60464;SDS011;46314;52.392;9.758;2023-02-18T03:06:51;10.25;;;3.08;;
60464;SDS011;46314;52.392;9.758;2023-02-18T03:09:32;8.55;;;1.88;;
60464;SDS011;46314;52.392;9.758;2023-02-18T03:12:10;8.30;;;2.35;;
60464;SDS011;46314;52.392;9.758;2023-02-18T03:14:45;8.55;;;3.35;;
60464;SDS011;46314;52.392;9.758;2023-02-18T03:17:20;12.98;;;2.80;;
60464;SDS011;46314;52.392;9.758;2023-02-18T03:19:51;10.13;;;2.75;;
60464;SDS011;46314;52.392;9.758;2023-02-18T03:22:24;16.48;;;3.05;;
60464;SDS011;46314;52.392;9.758;2023-02-18T03:24:55;9.70;;;3.38;;
60464;SDS011;46314;52.392;9.758;2023-02-18T03:27:23;9.30;;;3.08;;
60464;SDS011;46314;52.392;9.758;2023-02-18T03:29:54;10.95;;;4.15;;
60464;SDS011;46314;52.392;9.758;2023-02-18T03:32:23;12.48;;;3.90;;
60464;SDS011;46314;52.392;9.758;2023-02-18T03:34:53;12.75;;;3.97;;
60464;SDS011;46314;52.392;9.758;2023-02-18T03:37:24;11.82;;;3.95;;
60464;SDS011;46314;52.392;9.758;2023-02-18T03:39:51;11.45;;;3.92;;
60464;SDS011;46314;52.392;9.758;2023-02-18T03:42:23;18.15;;;6.15;;
60464;SDS011;46314;52.392;9.758;2023-02-18T03:44:50;11.35;;;4.93;;
60464;SDS011;46314;52.392;9.758;2023-02-18T03:47:17;16.15;;;5.47;;
60464;SDS011;46314;52.392;9.758;2023-02-18T03:49:43;14.15;;;4.93;;
60464;SDS011;46314;52.392;9.758;2023-02-18T03:52:10;11.98;;;5.10;;
60464;SDS011;46314;52.392;9.758;2023-02-18T03:54:37;13.90;;;5.30;;
60464;SDS011;46314;52.392;9.758;2023-02-18T03:57:04;11.00;;;5.53;;
60464;SDS011;46314;52.392;9.758;2023-02-18T03:59:30;17.98;;;7.28;;
60464;SDS011;46314;52.392;9.758;2023-02-18T04:01:57;19.95;;;8.45;;
60464;SDS011;46314;52.392;9.758;2023-02-18T04:04:23;16.45;;;8.45;;
60464;SDS011;46314;52.392;9.758;2023-02-18T04:06:49;16.48;;;8.60;;
60464;SDS011;46314;52.392;9.758;2023-02-18T04:09:16;16.38;;;9.05;;
60464;SDS011;46314;52.392;9.758;2023-02-18T04:11:44;27.15;;;10.57;;
60464;SDS011;46314;52.392;9.758;2023-02-18T04:14:10;23.00;;;10.30;;
60464;SDS011;46314;52.392;9.758;2023-02-18T04:16:39;17.63;;;9.93;;
60464;SDS011;46314;52.392;9.758;2023-02-18T04:19:05;24.55;;;12.40;;
60464;SDS011;46314;52.392;9.758;2023-02-18T04:21:32;20.67;;;12.05;;
60464;SDS011;46314;52.392;9.758;2023-02-18T04:23:59;21.40;;;11.90;;
60464;SDS011;46314;52.392;9.758;2023-02-18T04:26:26;20.95;;;11.80;;
60464;SDS011;46314;52.392;9.758;2023-02-18T04:28:54;22.65;;;12.13;;
60464;SDS011;46314;52.392;9.758;2023-02-18T04:31:20;23.08;;;12.60;;
60464;SDS011;46314;52.392;9.758;2023-02-18T04:33:47;24.60;;;14.00;;
60464;SDS011;46314;52.392;9.758;2023-02-18T04:36:13;25.15;;;12.98;;
60464;SDS011;46314;52.392;9.758;2023-02-18T04:38:40;25.10;;;13.25;;
60464;SDS011;46314;52.392;9.758;2023-02-18T04:41:06;29.00;;;13.93;;
60464;SDS011;46314;52.392;9.758;2023-02-18T04:43:33;26.20;;;12.43;;
60464;SDS011;46314;52.392;9.758;2023-02-18T04:46:00;24.70;;;13.18;;
60464;SDS011;46314;52.392;9.758;2023-02-18T04:48:27;20.25;;;12.10;;
60464;SDS011;46314;52.392;9.758;2023-02-18T04:50:53;20.00;;;11.88;;
60464;SDS011;46314;52.392;9.758;2023-02-18T04:53:20;28.73;;;13.70;;
60464;SDS011;46314;52.392;9.758;2023-02-18T04:55:48;23.27;;;12.65;;
60464;SDS011;46314;52.392;9.758;2023-02-18T04:58:15;26.33;;;12.57;;
60464;SDS011;46314;52.392;9.758;2023-02-18T05:00:41;30.27;;;13.82;;
60464;SDS011;46314;52.392;9.758;2023-02-18T05:03:09;22.92;;;12.40;;
60464;SDS011;46314;52.392;9.758;2023-02-18T05:05:36;23.50;;;11.75;;
60464;SDS011;46314;52.392;9.758;2023-02-18T05:08:02;22.75;;;10.63;;
60464;SDS011;46314;52.392;9.758;2023-02-18T05:10:29;20.77;;;10.60;;
60464;SDS011;46314;52.392;9.758;2023-02-18T05:12:55;18.67;;;10.27;;
60464;SDS011;46314;52.392;9.758;2023-02-18T05:15:22;27.30;;;12.63;;
60464;SDS011;46314;52.392;9.758;2023-02-18T05:17:48;31.75;;;13.35;;
60464;SDS011;46314;52.392;9.758;2023-02-18T05:20:16;24.35;;;12.10;;
60464;SDS011;46314;52.392;9.758;2023-02-18T05:22:43;29.00;;;13.65;;
60464;SDS011;46314;52.392;9.758;2023-02-18T05:25:09;20.40;;;11.48;;
60464;SDS011;46314;52.392;9.758;2023-02-18T05:27:35;31.92;;;13.23;;
60464;SDS011;46314;52.392;9.758;2023-02-18T05:30:02;36.90;;;15.00;;
60464;SDS011;46314;52.392;9.758;2023-02-18T05:32:29;26.48;;;12.75;;
60464;SDS011;46314;52.392;9.758;2023-02-18T05:34:56;40.90;;;16.90;;
60464;SDS011;46314;52.392;9.758;2023-02-18T05:37:23;27.58;;;14.27;;
60464;SDS011;46314;52.392;9.758;2023-02-18T05:39:50;35.60;;;16.63;;
60464;SDS011;46314;52.392;9.758;2023-02-18T05:42:16;27.05;;;13.93;;
60464;SDS011;46314;52.392;9.758;2023-02-18T05:44:43;36.22;;;15.95;;
60464;SDS011;46314;52.392;9.758;2023-02-18T05:47:10;25.90;;;12.13;;
60464;SDS011;46314;52.392;9.758;2023-02-18T05:49:38;31.42;;;14.45;;
60464;SDS011;46314;52.392;9.758;2023-02-18T05:52:05;38.53;;;17.30;;
60464;SDS011;46314;52.392;9.758;2023-02-18T05:54:34;25.77;;;13.90;;
60464;SDS011;46314;52.392;9.758;2023-02-18T05:57:02;27.50;;;12.88;;
60464;SDS011;46314;52.392;9.758;2023-02-18T05:59:29;22.40;;;11.93;;
60464;SDS011;46314;52.392;9.758;2023-02-18T06:01:55;31.85;;;13.60;;
60464;SDS011;46314;52.392;9.758;2023-02-18T06:04:22;43.58;;;17.42;;
60464;SDS011;46314;52.392;9.758;2023-02-18T06:06:49;28.30;;;15.52;;
60464;SDS011;46314;52.392;9.758;2023-02-18T06:09:15;25.65;;;13.30;;
60464;SDS011;46314;52.392;9.758;2023-02-18T06:11:43;41.88;;;17.90;;
60464;SDS011;46314;52.392;9.758;2023-02-18T06:14:09;31.25;;;16.38;;
60464;SDS011;46314;52.392;9.758;2023-02-18T06:16:36;26.60;;;13.20;;
60464;SDS011;46314;52.392;9.758;2023-02-18T06:19:02;31.35;;;15.77;;
60464;SDS011;46314;52.392;9.758;2023-02-18T06:21:29;28.25;;;13.57;;
60464;SDS011;46314;52.392;9.758;2023-02-18T06:23:55;45.72;;;19.13;;
60464;SDS011;46314;52.392;9.758;2023-02-18T06:26:21;31.98;;;16.30;;
60464;SDS011;46314;52.392;9.758;2023-02-18T06:28:49;50.17;;;21.20;;
60464;SDS011;46314;52.392;9.758;2023-02-18T06:31:16;35.33;;;17.10;;
60464;SDS011;46314;52.392;9.758;2023-02-18T06:33:42;38.28;;;19.30;;
60464;SDS011;46314;52.392;9.758;2023-02-18T06:36:10;46.90;;;21.52;;
60464;SDS011;46314;52.392;9.758;2023-02-18T06:38:38;34.28;;;19.45;;
60464;SDS011;46314;52.392;9.758;2023-02-18T06:41:06;49.28;;;23.38;;
60464;SDS011;46314;52.392;9.758;2023-02-18T06:43:33;32.08;;;18.95;;
60464;SDS011;46314;52.392;9.758;2023-02-18T06:46:00;64.53;;;27.90;;
60464;SDS011;46314;52.392;9.758;2023-02-18T06:48:27;35.72;;;19.63;;
60464;SDS011;46314;52.392;9.758;2023-02-18T06:50:54;36.30;;;21.50;;
60464;SDS011;46314;52.392;9.758;2023-02-18T06:53:21;34.92;;;22.08;;
60464;SDS011;46314;52.392;9.758;2023-02-18T06:55:47;48.08;;;23.92;;
60464;SDS011;46314;52.392;9.758;2023-02-18T06:58:14;62.55;;;27.27;;
60464;SDS011;46314;52.392;9.758;2023-02-18T07:00:41;43.20;;;24.48;;
60464;SDS011;46314;52.392;9.758;2023-02-18T07:03:09;37.90;;;22.25;;
60464;SDS011;46314;52.392;9.758;2023-02-18T07:05:37;43.63;;;23.23;;
60464;SDS011;46314;52.392;9.758;2023-02-18T07:08:04;31.83;;;19.90;;
60464;SDS011;46314;52.392;9.758;2023-02-18T07:10:30;52.30;;;25.42;;
60464;SDS011;46314;52.392;9.758;2023-02-18T07:12:56;46.55;;;22.95;;
60464;SDS011;46314;52.392;9.758;2023-02-18T07:15:23;30.50;;;18.90;;
60464;SDS011;46314;52.392;9.758;2023-02-18T07:17:49;62.67;;;26.90;;
60464;SDS011;46314;52.392;9.758;2023-02-18T07:20:17;37.13;;;21.73;;
60464;SDS011;46314;52.392;9.758;2023-02-18T07:22:45;46.80;;;24.48;;
60464;SDS011;46314;52.392;9.758;2023-02-18T07:25:12;39.92;;;21.63;;
60464;SDS011;46314;52.392;9.758;2023-02-18T07:27:39;32.60;;;18.08;;
60464;SDS011;46314;52.392;9.758;2023-02-18T07:30:06;33.50;;;18.77;;
60464;SDS011;46314;52.392;9.758;2023-02-18T07:32:33;36.83;;;19.38;;
60464;SDS011;46314;52.392;9.758;2023-02-18T07:35:00;45.28;;;20.83;;
60464;SDS011;46314;52.392;9.758;2023-02-18T07:37:28;24.85;;;14.75;;
60464;SDS011;46314;52.392;9.758;2023-02-18T07:39:54;30.50;;;17.35;;
60464;SDS011;46314;52.392;9.758;2023-02-18T07:42:20;35.13;;;18.33;;
60464;SDS011;46314;52.392;9.758;2023-02-18T07:44:47;39.35;;;20.00;;
60464;SDS011;46314;52.392;9.758;2023-02-18T07:47:14;29.33;;;17.48;;
60464;SDS011;46314;52.392;9.758;2023-02-18T07:49:42;22.83;;;14.32;;
60464;SDS011;46314;52.392;9.758;2023-02-18T07:52:08;40.38;;;20.17;;
60464;SDS011;46314;52.392;9.758;2023-02-18T07:54:36;24.23;;;14.38;;
60464;SDS011;46314;52.392;9.758;2023-02-18T07:57:03;31.83;;;16.55;;
60464;SDS011;46314;52.392;9.758;2023-02-18T07:59:29;25.70;;;15.25;;
60464;SDS011;46314;52.392;9.758;2023-02-18T08:01:55;29.35;;;17.38;;
60464;SDS011;46314;52.392;9.758;2023-02-18T08:04:22;26.38;;;15.90;;
60464;SDS011;46314;52.392;9.758;2023-02-18T08:06:49;19.42;;;12.75;;
60464;SDS011;46314;52.392;9.758;2023-02-18T08:09:16;21.10;;;13.00;;
60464;SDS011;46314;52.392;9.758;2023-02-18T08:11:44;23.13;;;13.85;;
60464;SDS011;46314;52.392;9.758;2023-02-18T08:14:10;22.40;;;13.00;;
60464;SDS011;46314;52.392;9.758;2023-02-18T08:16:37;14.02;;;8.90;;
60464;SDS011;46314;52.392;9.758;2023-02-18T08:19:03;15.38;;;9.48;;
60464;SDS011;46314;52.392;9.758;2023-02-18T08:21:30;13.23;;;9.35;;
60464;SDS011;46314;52.392;9.758;2023-02-18T08:23:57;10.45;;;7.45;;
60464;SDS011;46314;52.392;9.758;2023-02-18T08:26:24;9.75;;;6.60;;
60464;SDS011;46314;52.392;9.758;2023-02-18T08:28:53;8.75;;;5.80;;
60464;SDS011;46314;52.392;9.758;2023-02-18T08:31:20;8.45;;;4.88;;
60464;SDS011;46314;52.392;9.758;2023-02-18T08:33:48;7.72;;;4.72;;
60464;SDS011;46314;52.392;9.758;2023-02-18T08:36:14;5.95;;;4.00;;
60464;SDS011;46314;52.392;9.758;2023-02-18T08:38:41;5.45;;;3.53;;
60464;SDS011;46314;52.392;9.758;2023-02-18T08:41:08;4.63;;;3.03;;
60464;SDS011;46314;52.392;9.758;2023-02-18T08:43:35;5.05;;;3.45;;
60464;SDS011;46314;52.392;9.758;2023-02-18T08:46:03;5.72;;;3.45;;
60464;SDS011;46314;52.392;9.758;2023-02-18T08:48:30;4.22;;;2.78;;
60464;SDS011;46314;52.392;9.758;2023-02-18T08:50:56;5.40;;;3.17;;
60464;SDS011;46314;52.392;9.758;2023-02-18T08:53:23;3.70;;;3.00;;
60464;SDS011;46314;52.392;9.758;2023-02-18T08:55:50;4.93;;;2.83;;
60464;SDS011;46314;52.392;9.758;2023-02-18T08:58:16;4.15;;;2.92;;
60464;SDS011;46314;52.392;9.758;2023-02-18T09:00:43;3.35;;;2.78;;
60464;SDS011;46314;52.392;9.758;2023-02-18T09:03:13;3.25;;;2.50;;
60464;SDS011;46314;52.392;9.758;2023-02-18T09:05:40;2.83;;;2.25;;
60464;SDS011;46314;52.392;9.758;2023-02-18T09:08:06;2.95;;;2.30;;
60464;SDS011;46314;52.392;9.758;2023-02-18T09:10:33;4.28;;;2.63;;
60464;SDS011;46314;52.392;9.758;2023-02-18T09:12:59;2.13;;;1.73;;
60464;SDS011;46314;52.392;9.758;2023-02-18T09:15:26;2.67;;;1.92;;
60464;SDS011;46314;52.392;9.758;2023-02-18T09:17:52;7.10;;;4.57;;
60464;SDS011;46314;52.392;9.758;2023-02-18T09:20:20;3.38;;;2.00;;
60464;SDS011;46314;52.392;9.758;2023-02-18T09:22:47;3.22;;;2.13;;
60464;SDS011;46314;52.392;9.758;2023-02-18T09:25:13;3.88;;;2.50;;
60464;SDS011;46314;52.392;9.758;2023-02-18T09:27:39;1.73;;;1.35;;
60464;SDS011;46314;52.392;9.758;2023-02-18T09:30:06;2.03;;;1.52;;
60464;SDS011;46314;52.392;9.758;2023-02-18T09:32:33;2.00;;;1.30;;
60464;SDS011;46314;52.392;9.758;2023-02-18T09:35:00;1.52;;;1.42;;
60464;SDS011;46314;52.392;9.758;2023-02-18T09:37:28;1.90;;;1.33;;
60464;SDS011;46314;52.392;9.758;2023-02-18T09:39:55;1.23;;;1.10;;
60464;SDS011;46314;52.392;9.758;2023-02-18T09:42:23;1.60;;;1.10;;
60464;SDS011;46314;52.392;9.758;2023-02-18T09:44:56;1.75;;;0.98;;
60464;SDS011;46314;52.392;9.758;2023-02-18T09:47:28;1.20;;;1.10;;
60464;SDS011;46314;52.392;9.758;2023-02-18T09:49:59;1.52;;;1.20;;
60464;SDS011;46314;52.392;9.758;2023-02-18T09:52:34;1.10;;;0.90;;
60464;SDS011;46314;52.392;9.758;2023-02-18T09:55:02;0.70;;;0.60;;
60464;SDS011;46314;52.392;9.758;2023-02-18T09:57:44;1.15;;;0.80;;
60464;SDS011;46314;52.392;9.758;2023-02-18T10:00:13;1.23;;;0.88;;
60464;SDS011;46314;52.392;9.758;2023-02-18T10:02:44;0.75;;;0.73;;
60464;SDS011;46314;52.392;9.758;2023-02-18T10:05:18;0.90;;;0.70;;
60464;SDS011;46314;52.392;9.758;2023-02-18T10:07:47;1.70;;;1.13;;
60464;SDS011;46314;52.392;9.758;2023-02-18T10:10:18;0.88;;;0.73;;
60464;SDS011;46314;52.392;9.758;2023-02-18T10:12:48;0.80;;;0.65;;
60464;SDS011;46314;52.392;9.758;2023-02-18T10:15:19;1.05;;;0.82;;
60464;SDS011;46314;52.392;9.758;2023-02-18T10:17:48;0.70;;;0.70;;
60464;SDS011;46314;52.392;9.758;2023-02-18T10:20:17;1.25;;;0.95;;
60464;SDS011;46314;52.392;9.758;2023-02-18T10:22:49;1.20;;;0.90;;
60464;SDS011;46314;52.392;9.758;2023-02-18T10:25:18;1.20;;;0.60;;
60464;SDS011;46314;52.392;9.758;2023-02-18T10:27:48;1.48;;;0.80;;
60464;SDS011;46314;52.392;9.758;2023-02-18T10:30:20;1.00;;;0.77;;
60464;SDS011;46314;52.392;9.758;2023-02-18T10:32:50;1.45;;;0.70;;
60464;SDS011;46314;52.392;9.758;2023-02-18T10:35:21;1.20;;;0.85;;
60464;SDS011;46314;52.392;9.758;2023-02-18T10:37:58;1.77;;;1.40;;
60464;SDS011;46314;52.392;9.758;2023-02-18T10:40:34;1.52;;;1.20;;
60464;SDS011;46314;52.392;9.758;2023-02-18T10:43:14;1.20;;;1.00;;
60464;SDS011;46314;52.392;9.758;2023-02-18T10:45:51;0.90;;;0.73;;
60464;SDS011;46314;52.392;9.758;2023-02-18T10:48:41;1.33;;;0.90;;
60464;SDS011;46314;52.392;9.758;2023-02-18T10:51:22;1.13;;;1.00;;
60464;SDS011;46314;52.392;9.758;2023-02-18T10:53:55;1.15;;;0.98;;
60464;SDS011;46314;52.392;9.758;2023-02-18T10:56:31;0.70;;;0.70;;
60464;SDS011;46314;52.392;9.758;2023-02-18T10:59:03;1.35;;;0.88;;
60464;SDS011;46314;52.392;9.758;2023-02-18T11:01:35;1.05;;;0.80;;
60464;SDS011;46314;52.392;9.758;2023-02-18T11:04:06;0.73;;;0.60;;
60464;SDS011;46314;52.392;9.758;2023-02-18T11:06:38;0.85;;;0.80;;
60464;SDS011;46314;52.392;9.758;2023-02-18T11:09:10;0.60;;;0.40;;
60464;SDS011;46314;52.392;9.758;2023-02-18T11:11:51;0.75;;;0.50;;
60464;SDS011;46314;52.392;9.758;2023-02-18T11:14:37;0.55;;;0.40;;
60464;SDS011;46314;52.392;9.758;2023-02-18T11:17:08;0.80;;;0.55;;
60464;SDS011;46314;52.392;9.758;2023-02-18T11:19:45;1.33;;;1.10;;
60464;SDS011;46314;52.392;9.758;2023-02-18T11:22:20;1.83;;;1.10;;
60464;SDS011;46314;52.392;9.758;2023-02-18T11:24:54;1.00;;;0.90;;
60464;SDS011;46314;52.392;9.758;2023-02-18T11:27:23;1.60;;;1.30;;
60464;SDS011;46314;52.392;9.758;2023-02-18T11:29:54;1.05;;;0.95;;
60464;SDS011;46314;52.392;9.758;2023-02-18T11:32:26;1.20;;;1.00;;
60464;SDS011;46314;52.392;9.758;2023-02-18T11:34:54;1.40;;;1.00;;
60464;SDS011;46314;52.392;9.758;2023-02-18T11:37:20;1.30;;;0.93;;
60464;SDS011;46314;52.392;9.758;2023-02-18T11:39:48;1.52;;;1.20;;
60464;SDS011;46314;52.392;9.758;2023-02-18T11:42:19;1.60;;;1.23;;
60464;SDS011;46314;52.392;9.758;2023-02-18T11:44:49;3.20;;;1.17;;
60464;SDS011;46314;52.392;9.758;2023-02-18T11:47:25;0.95;;;0.77;;
60464;SDS011;46314;52.392;9.758;2023-02-18T11:50:13;1.65;;;1.25;;
60464;SDS011;46314;52.392;9.758;2023-02-18T11:52:42;1.25;;;1.15;;
60464;SDS011;46314;52.392;9.758;2023-02-18T11:55:13;3.13;;;1.25;;
60464;SDS011;46314;52.392;9.758;2023-02-18T11:57:43;1.20;;;0.90;;
60464;SDS011;46314;52.392;9.758;2023-02-18T12:00:15;2.08;;;1.10;;
60464;SDS011;46314;52.392;9.758;2023-02-18T12:02:46;1.45;;;1.10;;
60464;SDS011;46314;52.392;9.758;2023-02-18T12:05:13;1.40;;;1.00;;
60464;SDS011;46314;52.392;9.758;2023-02-18T12:07:44;1.48;;;1.25;;
60464;SDS011;46314;52.392;9.758;2023-02-18T12:10:13;1.90;;;1.27;;
60464;SDS011;46314;52.392;9.758;2023-02-18T12:12:46;2.45;;;1.60;;
60464;SDS011;46314;52.392;9.758;2023-02-18T12:15:17;1.90;;;1.33;;
60464;SDS011;46314;52.392;9.758;2023-02-18T12:17:51;1.67;;;1.20;;
60464;SDS011;46314;52.392;9.758;2023-02-18T12:20:36;1.63;;;1.17;;
60464;SDS011;46314;52.392;9.758;2023-02-18T12:23:19;1.60;;;1.02;;
60464;SDS011;46314;52.392;9.758;2023-02-18T12:25:59;3.75;;;1.38;;
60464;SDS011;46314;52.392;9.758;2023-02-18T12:28:47;1.70;;;0.82;;
60464;SDS011;46314;52.392;9.758;2023-02-18T12:34:11;1.63;;;1.08;;
60464;SDS011;46314;52.392;9.758;2023-02-18T12:36:51;1.90;;;1.40;;
60464;SDS011;46314;52.392;9.758;2023-02-18T12:39:33;1.05;;;0.75;;
60464;SDS011;46314;52.392;9.758;2023-02-18T12:42:16;1.23;;;1.05;;
60464;SDS011;46314;52.392;9.758;2023-02-18T12:44:59;2.65;;;1.55;;
60464;SDS011;46314;52.392;9.758;2023-02-18T12:47:56;1.70;;;0.95;;
60464;SDS011;46314;52.392;9.758;2023-02-18T12:50:39;1.80;;;1.00;;
60464;SDS011;46314;52.392;9.758;2023-02-18T12:53:20;2.60;;;1.35;;
60464;SDS011;46314;52.392;9.758;2023-02-18T12:56:00;1.75;;;1.30;;
60464;SDS011;46314;52.392;9.758;2023-02-18T12:58:38;1.58;;;1.10;;
60464;SDS011;46314;52.392;9.758;2023-02-18T13:01:20;1.75;;;1.17;;
60464;SDS011;46314;52.392;9.758;2023-02-18T13:04:04;2.22;;;1.33;;
60464;SDS011;46314;52.392;9.758;2023-02-18T13:10:03;2.80;;;1.30;;
60464;SDS011;46314;52.392;9.758;2023-02-18T13:12:47;2.72;;;1.73;;
60464;SDS011;46314;52.392;9.758;2023-02-18T13:15:22;3.65;;;2.38;;
60464;SDS011;46314;52.392;9.758;2023-02-18T13:17:57;3.75;;;1.92;;
60464;SDS011;46314;52.392;9.758;2023-02-18T13:20:28;2.08;;;1.60;;
60464;SDS011;46314;52.392;9.758;2023-02-18T13:23:02;2.30;;;1.52;;
60464;SDS011;46314;52.392;9.758;2023-02-18T13:25:30;2.67;;;1.67;;
60464;SDS011;46314;52.392;9.758;2023-02-18T13:28:04;3.78;;;2.15;;
60464;SDS011;46314;52.392;9.758;2023-02-18T13:30:40;3.15;;;1.85;;
60464;SDS011;46314;52.392;9.758;2023-02-18T13:33:12;2.45;;;1.85;;
60464;SDS011;46314;52.392;9.758;2023-02-18T13:35:47;5.43;;;2.10;;
60464;SDS011;46314;52.392;9.758;2023-02-18T13:38:25;2.45;;;1.83;;
60464;SDS011;46314;52.392;9.758;2023-02-18T13:41:08;2.40;;;1.90;;
60464;SDS011;46314;52.392;9.758;2023-02-18T13:43:35;2.17;;;1.65;;
60464;SDS011;46314;52.392;9.758;2023-02-18T13:46:02;3.88;;;1.98;;
60464;SDS011;46314;52.392;9.758;2023-02-18T13:48:35;6.55;;;2.67;;
60464;SDS011;46314;52.392;9.758;2023-02-18T13:51:08;3.67;;;2.03;;
60464;SDS011;46314;52.392;9.758;2023-02-18T13:53:36;2.75;;;2.30;;
60464;SDS011;46314;52.392;9.758;2023-02-18T13:56:06;3.00;;;2.30;;
60464;SDS011;46314;52.392;9.758;2023-02-18T13:58:36;3.55;;;2.53;;
60464;SDS011;46314;52.392;9.758;2023-02-18T14:01:12;3.20;;;2.25;;
60464;SDS011;46314;52.392;9.758;2023-02-18T14:03:51;5.10;;;2.92;;
60464;SDS011;46314;52.392;9.758;2023-02-18T14:06:20;3.65;;;2.30;;
60464;SDS011;46314;52.392;9.758;2023-02-18T14:08:49;3.50;;;2.75;;
60464;SDS011;46314;52.392;9.758;2023-02-18T14:11:23;4.45;;;2.97;;
60464;SDS011;46314;52.392;9.758;2023-02-18T14:14:14;4.00;;;2.63;;
60464;SDS011;46314;52.392;9.758;2023-02-18T14:20:26;4.35;;;3.03;;
60464;SDS011;46314;52.392;9.758;2023-02-18T14:22:56;3.55;;;2.78;;
60464;SDS011;46314;52.392;9.758;2023-02-18T14:25:26;4.28;;;2.55;;
60464;SDS011;46314;52.392;9.758;2023-02-18T14:28:00;4.53;;;2.42;;
60464;SDS011;46314;52.392;9.758;2023-02-18T14:30:30;6.90;;;2.95;;
60464;SDS011;46314;52.392;9.758;2023-02-18T14:33:01;4.78;;;3.08;;
60464;SDS011;46314;52.392;9.758;2023-02-18T14:35:30;2.97;;;2.40;;
60464;SDS011;46314;52.392;9.758;2023-02-18T14:38:05;4.28;;;2.70;;
60464;SDS011;46314;52.392;9.758;2023-02-18T14:40:54;4.13;;;2.53;;
60464;SDS011;46314;52.392;9.758;2023-02-18T14:43:43;4.28;;;2.40;;
60464;SDS011;46314;52.392;9.758;2023-02-18T14:46:26;4.97;;;2.85;;
60464;SDS011;46314;52.392;9.758;2023-02-18T14:49:09;3.35;;;2.42;;
60464;SDS011;46314;52.392;9.758;2023-02-18T14:51:46;9.00;;;3.20;;
60464;SDS011;46314;52.392;9.758;2023-02-18T14:54:14;6.07;;;2.85;;
60464;SDS011;46314;52.392;9.758;2023-02-18T14:56:46;3.70;;;2.53;;
60464;SDS011;46314;52.392;9.758;2023-02-18T14:59:19;8.18;;;3.33;;
60464;SDS011;46314;52.392;9.758;2023-02-18T15:01:46;6.22;;;3.50;;
60464;SDS011;46314;52.392;9.758;2023-02-18T15:04:13;6.30;;;3.08;;
60464;SDS011;46314;52.392;9.758;2023-02-18T15:06:43;6.88;;;3.17;;
60464;SDS011;46314;52.392;9.758;2023-02-18T15:09:14;4.78;;;3.00;;
60464;SDS011;46314;52.392;9.758;2023-02-18T15:11:45;6.47;;;3.17;;
60464;SDS011;46314;52.392;9.758;2023-02-18T15:14:15;7.93;;;3.78;;